Terminal Aerodrome Forecast
Issued by NWS Topeka, KS

Home | Current Version | Previous Version | Graphics & Text | Print | Product List | Glossary On
Versions: 1 2 3 4 5 6 7 8 9 10 11 12 13 14 15 16 17 18 19 20 21 22 23 24 25 26 27
185
FTUS43 KTOP 200409 AAA
TAFTOP
TAF AMD
KTOP 200409Z 2004/2024 04009KT 3SM -FZDZ VCSH OVC009
     FM200600 05008KT 3SM -FZRA OVC008 WS020/18035KT
     FM200900 31009KT 3SM -FZRA BR OVC008
     FM201700 33011KT P6SM OVC010
     FM202000 34012G18KT P6SM SCT050=

USA.gov is the U.S. government's official web portal to all federal, state and local government web resources and services.